This is the latest recevied weather packets stored in our database for station/object YC0TBU-4. If no packets are shown the sender has not sent any weather packets the latest 10 day(s).
| Time | Temp. | Humidity | Pressure | Rain* | Wind** | Luminosity | Snow |
|---|---|---|---|---|---|---|---|
| 1777318582 | 34.44° C | 30% | 1008.9 hPa | - | - | - | - |
| 1777317647 | 34.44° C | 30% | 1009.6 hPa | - | - | - | - |
| 1777316712 | 34.44° C | 30% | 1009.8 hPa | - | - | - | - |
| 1777315777 | 34.44° C | 31% | 1009.6 hPa | - | - | - | - |
| 1777314842 | 34.44° C | 33% | 1010 hPa | - | - | - | - |
| 1777313907 | 34.44° C | 33% | 1010.3 hPa | - | - | - | - |
| 1777312972 | 33.89° C | 33% | 1010.4 hPa | - | - | - | - |
| 1777312037 | 33.89° C | 33% | 1010.6 hPa | - | - | - | - |
| 1777311102 | 33.89° C | 33% | 1010.7 hPa | - | - | - | - |
| 1777310167 | 33.89° C | 33% | 1010.6 hPa | - | - | - | - |
| 1777309232 | 32.22° C | 36% | 1010.9 hPa | - | - | - | - |
| 1777308302 | 31.11° C | 38% | 1011 hPa | - | - | - | - |
| 1777307346 | 32.78° C | 37% | 1011 hPa | - | - | - | - |
| 1777306411 | 35° C | 32% | 1010.9 hPa | - | - | - | - |
| 1777305460 | 32.78° C | 35% | 1010.8 hPa | - | - | - | - |
| 1777304530 | 31.67° C | 38% | 1010.9 hPa | - | - | - | - |
| 1777303574 | 32.22° C | 37% | 1010.8 hPa | - | - | - | - |
| 1777302640 | 33.89° C | 34% | 1010.9 hPa | - | - | - | - |
| 1777301703 | 33.89° C | 34% | 1010.5 hPa | - | - | - | - |
| 1777300769 | 32.78° C | 35% | 1010 hPa | - | - | - | - |
| 1777299835 | 33.89° C | 34% | 1009.9 hPa | - | - | - | - |
| 1777298899 | 31.11° C | 38% | 1009.5 hPa | - | - | - | - |
| 1777297963 | 32.22° C | 36% | 1009.1 hPa | - | - | - | - |
| 1777297028 | 34.44° C | 32% | 1008.5 hPa | - | - | - | - |
| 1777296093 | 34.44° C | 32% | 1008.6 hPa | - | - | - | - |
* Rain since midnight (hover to see other rain measurements)
** Current wind speed in m/s (hover to see current wind gust speed)